Flight Track Log - Related Links

Times and Time Zones

All times are in EDT time to prevent confusion due to time zone crossing. See the KAP66 flight status page for this flight to view local times or setup timezone preferences in your user account.


Time Position Orientation Groundspeed Altitude Reporting Facility
EDT Latitude Longitude Course Direction KTS MPH feet Rate Location/Type
Thu 12:13:34 PM 42.3333 -70.9500 90° East 118 136 1,000  Level KA90
Thu 12:14:29 PM 42.3333 -70.9000 90° East 140 161 1,000  Level KA90
Thu 12:15:29 PM 42.3000 -70.8500 132° Southeast 148 170 1,000 -50 Level KA90
Thu 12:16:29 PM 42.2833 -70.8000 114° Southeast 151 174 900 -100 Descending KA90
Thu 12:18:00 PM 42.2582 -70.7245 114° Southeast  Level FlightAware Approximate
Thu 12:25:00 PM 42.1332 -70.3830 114° Southeast  Level FlightAware Approximate
Thu 12:26:00 PM 42.1168 -70.3333 114° Southeast  Level FlightAware Approximate
Thu 12:27:00 PM 42.1003 -70.2837 114° Southeast  Level FlightAware Approximate
Thu 12:28:00 PM 42.0838 -70.2342 114° Southeast  Level FlightAware Approximate
Thu 12:29:00 PM 42.0673 -70.1846 114° Southeast  Level FlightAware Approximate
Thu 12:30:00 PM 42.0508 -70.1351 114° Southeast  Level FlightAware Approximate
Thu 12:31:00 PM 42.0342 -70.0856 114° Southeast  Level FlightAware Approximate
Thu 12:32:00 PM 42.0176 -70.0361 114° Southeast  Level FlightAware Approximate
Thu 12:33:00 PM 41.9786 -70.0333 180° South  Level FlightAware Approximate
Thu 12:34:00 PM 41.9383 -70.0333 180° South  Level FlightAware Approximate
Thu 12:35:00 PM 41.8980 -70.0333 180° South  Level FlightAware Approximate
Thu 12:36:00 PM 41.8577 -70.0333 180° South  Level FlightAware Approximate
Thu 12:37:00 PM 41.8174 -70.0333 180° South  Level FlightAware Approximate
Thu 12:38:00 PM 41.7771 -70.0333 180° South  Level FlightAware Approximate
Thu 12:39:00 PM 41.7368 -70.0333 180° South  Level FlightAware Approximate
Thu 12:40:00 PM 41.6965 -70.0333 180° South  Level FlightAware Approximate
Thu 12:41:00 PM 41.6562 -70.0333 180° South  Level FlightAware Approximate
Thu 12:42:00 PM 41.6159 -70.0333 180° South  Level FlightAware Approximate
Thu 12:43:00 PM 41.5758 -70.0382 189° South  Level FlightAware Approximate
Thu 12:44:00 PM 41.5359 -70.0462 189° South  Level FlightAware Approximate
Thu 12:45:00 PM 41.4958 -70.0500 180° South  Level FlightAware Approximate
Thu 12:46:00 PM 41.4555 -70.0500 180° South  Level FlightAware Approximate
Thu 12:47:00 PM 41.4152 -70.0500 180° South  Level FlightAware Approximate
Thu 12:48:00 PM 41.3749 -70.0500 180° South  Level FlightAware Approximate
Thu 12:49:00 PM 41.3346 -70.0500 180° South  Level FlightAware Approximate
Thu 12:50:00 PM 41.2943 -70.0500 180° South  Level FlightAware Approximate
Thu 12:51:00 PM 41.2540 -70.0500 180° South  Level FlightAware Approximate
Thu 12:52:00 PM 41.2500 -70.0500 180° South  Level FlightAware Approximate

Login

Don't have an account? Register now (free) for customized features, flight alerts, and more!